createdAt,value
2019-03-01T00:01:21.953Z,94575.58
2019-03-01T00:04:02.212Z,94575.82
2019-03-01T00:06:39.561Z,94575.02
2019-03-01T00:10:05.121Z,94581.92
2019-03-01T00:12:57.568Z,94576.22
2019-03-01T00:15:52.265Z,94574.17
2019-03-01T00:19:08.778Z,94570.06
2019-03-01T00:21:52.527Z,94564.19
2019-03-01T00:24:53.352Z,94565.59
2019-03-01T00:28:00.047Z,94559.64
2019-03-01T00:30:59.236Z,94560.17
2019-03-01T00:34:13.387Z,94550.00
2019-03-01T00:37:22.932Z,94552.02
2019-03-01T00:40:17.529Z,94554.51
2019-03-01T00:43:33.932Z,94555.04
2019-03-01T00:46:03.761Z,94530.38
2019-03-01T00:48:33.679Z,94530.90
2019-03-01T00:51:03.498Z,94524.68
2019-03-01T00:53:33.395Z,94526.55
2019-03-01T00:56:03.207Z,94522.88
2019-03-01T00:58:33.013Z,94516.50
2019-03-01T01:01:02.937Z,94518.58
2019-03-01T01:03:32.662Z,94516.38
2019-03-01T01:06:02.573Z,94517.58
2019-03-01T01:08:32.491Z,94514.31
2019-03-01T01:11:02.303Z,94512.48
2019-03-01T01:13:32.122Z,94505.48
2019-03-01T01:16:02.029Z,94498.05
2019-03-01T01:18:31.827Z,94499.17
2019-03-01T01:21:01.643Z,94498.73
2019-03-01T01:23:31.464Z,94501.31
2019-03-01T01:26:01.306Z,94496.91
2019-03-01T01:28:31.260Z,94493.39
2019-03-01T01:31:01.016Z,94506.11
2019-03-01T01:33:30.913Z,94503.44
2019-03-01T01:36:00.780Z,94504.09
2019-03-01T01:38:30.647Z,94499.92
2019-03-01T01:41:00.385Z,94503.22
2019-03-01T01:43:30.187Z,94504.34
2019-03-01T01:46:00.113Z,94488.41
2019-03-01T01:48:30.163Z,94501.12
2019-03-01T01:51:00.080Z,94495.78
2019-03-01T01:53:29.860Z,94509.69
2019-03-01T01:55:59.862Z,94507.29
2019-03-01T01:58:29.679Z,94504.93
2019-03-01T02:00:59.495Z,94503.53
2019-03-01T02:03:29.402Z,94509.91
2019-03-01T02:05:59.241Z,94504.46
2019-03-01T02:08:29.129Z,94510.97
2019-03-01T02:10:58.954Z,94511.15
2019-03-01T02:13:28.869Z,94507.14
2019-03-01T02:15:58.779Z,94514.98
2019-03-01T02:18:28.605Z,94508.45
2019-03-01T02:20:58.720Z,94513.95
2019-03-01T02:23:28.544Z,94503.84
2019-03-01T02:25:58.543Z,94507.91
2019-03-01T02:28:28.612Z,94508.78
2019-03-01T02:30:59.028Z,94503.97
2019-03-01T02:33:28.898Z,94500.92
2019-03-01T02:35:58.823Z,94500.92
2019-03-01T02:38:28.548Z,94496.03
2019-03-01T02:40:58.433Z,94489.19
2019-03-01T02:43:28.176Z,94495.07
2019-03-01T02:45:58.080Z,94489.66
2019-03-01T02:48:27.784Z,94493.73
2019-03-01T02:50:57.918Z,94499.89
2019-03-01T02:53:27.810Z,94498.61
2019-03-01T02:55:57.694Z,94501.29
2019-03-01T02:58:27.554Z,94497.78
2019-03-01T03:00:57.275Z,94505.52
2019-03-01T03:03:27.356Z,94503.09
2019-03-01T03:06:22.074Z,94509.81
2019-03-01T03:08:51.795Z,94511.34
2019-03-01T03:11:21.704Z,94510.53
2019-03-01T03:13:51.543Z,94533.27
2019-03-01T03:16:21.682Z,94518.08
2019-03-01T03:18:51.670Z,94516.75
2019-03-01T03:21:21.523Z,94528.13
2019-03-01T03:23:51.392Z,94530.46
2019-03-01T03:26:21.308Z,94522.78
2019-03-01T03:28:51.319Z,94538.08
2019-03-01T03:31:21.301Z,94529.78
2019-03-01T03:33:51.062Z,94527.66
2019-03-01T03:36:20.963Z,94532.80
2019-03-01T03:38:50.703Z,94533.85
2019-03-01T03:41:20.592Z,94540.29
2019-03-01T03:43:50.319Z,94529.31
2019-03-01T03:46:20.210Z,94543.21
2019-03-01T03:48:50.050Z,94537.73
2019-03-01T03:51:19.933Z,94538.02
2019-03-01T03:53:49.758Z,94537.27
2019-03-01T03:56:19.888Z,94535.94
2019-03-01T03:58:49.830Z,94539.64
2019-03-01T04:01:19.696Z,94540.16
2019-03-01T04:03:49.579Z,94544.83
2019-03-01T04:06:19.434Z,94529.84
2019-03-01T04:08:49.169Z,94530.06
2019-03-01T04:11:19.059Z,94525.23
2019-03-01T04:13:48.795Z,94522.25
2019-03-01T04:16:18.692Z,94525.70
2019-03-01T04:18:48.579Z,94534.00
2019-03-01T04:21:18.415Z,94534.28
2019-03-01T04:23:48.140Z,94527.59
2019-03-01T04:26:18.057Z,94525.92
2019-03-01T04:28:48.057Z,94534.00
2019-03-01T04:31:17.892Z,94532.67
2019-03-01T04:33:47.787Z,94530.80
2019-03-01T04:36:17.528Z,94524.98
2019-03-01T04:38:47.432Z,94529.53
2019-03-01T04:41:17.254Z,94532.14
2019-03-01T04:43:47.068Z,94534.53
2019-03-01T04:46:17.005Z,94530.93
2019-03-01T04:48:48.781Z,94534.00
2019-03-01T04:51:19.936Z,94536.75
2019-03-01T04:53:49.957Z,94528.78
2019-03-01T04:56:19.567Z,94522.69
2019-03-01T04:58:49.449Z,94522.69
2019-03-01T05:01:19.257Z,94520.77
2019-03-01T05:03:53.220Z,94526.39
2019-03-01T05:06:23.243Z,94526.73
2019-03-01T05:08:52.978Z,94526.23
2019-03-01T05:11:22.932Z,94524.11
2019-03-01T05:13:52.723Z,94523.42
2019-03-01T05:16:22.846Z,94514.55
2019-03-01T05:18:54.922Z,94524.75
2019-03-01T05:21:24.941Z,94535.27
2019-03-01T05:23:54.936Z,94535.55
2019-03-01T05:26:24.818Z,94534.67
2019-03-01T05:28:54.650Z,94538.69
2019-03-01T05:31:24.548Z,94547.48
2019-03-01T05:33:55.407Z,94539.86
2019-03-01T05:36:25.247Z,94526.42
2019-03-01T05:38:55.139Z,94525.22
2019-03-01T05:41:24.937Z,94524.78
2019-03-01T05:43:57.330Z,94533.33
2019-03-01T05:46:28.141Z,94534.06
2019-03-01T05:48:57.887Z,94546.06
2019-03-01T05:51:27.938Z,94539.66
2019-03-01T05:53:59.614Z,94541.20
2019-03-01T05:56:29.543Z,94546.63
2019-03-01T05:59:20.101Z,94551.02
2019-03-01T06:02:14.772Z,94548.42
2019-03-01T06:04:51.848Z,94575.29
2019-03-01T06:07:56.465Z,94577.02
2019-03-01T06:10:50.742Z,94574.64
2019-03-01T06:13:54.447Z,94590.19
2019-03-01T06:17:04.851Z,94590.56
2019-03-01T06:19:59.304Z,94595.43
2019-03-01T06:23:21.135Z,94599.22
2019-03-01T06:26:56.415Z,94600.84
2019-03-01T06:29:57.198Z,94598.70
2019-03-01T06:33:14.507Z,94592.34
2019-03-01T06:36:11.660Z,94594.67
2019-03-01T06:39:44.578Z,94590.37
2019-03-01T06:42:39.962Z,94586.48
2019-03-01T06:45:23.560Z,94596.14
2019-03-01T06:47:53.383Z,94602.09
2019-03-01T06:50:36.082Z,94600.86
2019-03-01T06:53:06.155Z,94598.19
2019-03-01T06:55:40.273Z,94598.30
2019-03-01T06:58:24.684Z,94600.43
2019-03-01T07:01:02.064Z,94597.93
2019-03-01T07:03:31.887Z,94588.09
2019-03-01T07:06:03.510Z,94596.75
2019-03-01T07:08:33.221Z,94592.17
2019-03-01T07:11:02.962Z,94596.97
2019-03-01T07:13:32.790Z,94590.59
2019-03-01T07:16:02.718Z,94582.80
2019-03-01T07:18:32.579Z,94577.88
2019-03-01T07:21:02.410Z,94580.55
2019-03-01T07:23:36.666Z,94568.83
2019-03-01T07:26:03.793Z,94568.64
2019-03-01T07:28:33.701Z,94567.48
2019-03-01T07:31:03.524Z,94558.28
2019-03-01T07:33:33.441Z,94556.06
2019-03-01T07:36:03.325Z,94570.84
2019-03-01T07:38:33.150Z,94564.75
2019-03-01T07:41:02.967Z,94565.97
2019-03-01T07:43:32.783Z,94555.45
2019-03-01T07:46:02.726Z,94551.13
2019-03-01T07:48:32.528Z,94555.14
2019-03-01T07:51:02.569Z,94548.98
2019-03-01T07:53:36.077Z,94553.41
2019-03-01T07:56:05.296Z,94542.67
2019-03-01T07:58:35.469Z,94537.14
2019-03-01T08:01:05.288Z,94551.05
2019-03-01T08:03:35.111Z,94552.98
2019-03-01T08:06:05.008Z,94552.98
2019-03-01T08:08:38.596Z,94555.59
2019-03-01T08:11:06.458Z,94562.90
2019-03-01T08:13:36.212Z,94559.76
2019-03-01T08:16:06.080Z,94562.55
2019-03-01T08:18:35.837Z,94567.69
2019-03-01T08:21:06.395Z,94562.09
2019-03-01T08:23:37.304Z,94569.77
2019-03-01T08:26:07.189Z,94568.95
2019-03-01T08:28:37.133Z,94578.42
2019-03-01T08:31:07.056Z,94573.25
2019-03-01T08:33:42.307Z,94579.08
2019-03-01T08:36:08.600Z,94579.23
2019-03-01T08:38:38.442Z,94585.22
2019-03-01T08:41:08.310Z,94583.08
2019-03-01T08:43:38.066Z,94584.00
2019-03-01T08:46:09.370Z,94585.66
2019-03-01T08:48:40.427Z,94590.60
2019-03-01T08:51:10.338Z,94592.44
2019-03-01T08:53:40.067Z,94596.36
2019-03-01T08:56:10.904Z,94594.37
2019-03-01T08:58:42.512Z,94589.02
2019-03-01T09:01:13.185Z,94591.23
2019-03-01T09:03:47.181Z,94585.94
2019-03-01T09:06:17.113Z,94593.91
2019-03-01T09:08:47.008Z,94590.88
2019-03-01T09:11:16.841Z,94595.52
2019-03-01T09:13:46.750Z,94587.33
2019-03-01T09:16:16.589Z,94593.42
2019-03-01T09:18:49.519Z,94593.64
2019-03-01T09:21:17.956Z,94580.88
2019-03-01T09:23:51.095Z,94587.84
2019-03-01T09:26:19.961Z,94589.30
2019-03-01T09:28:50.443Z,94595.85
2019-03-01T09:31:20.242Z,94555.73
2019-03-01T09:33:50.090Z,94565.16
2019-03-01T09:36:26.836Z,94562.09
2019-03-01T09:38:56.767Z,94550.05
2019-03-01T09:41:26.607Z,94556.52
2019-03-01T09:43:59.637Z,94558.36
2019-03-01T09:46:28.358Z,94546.98
2019-03-01T09:48:58.180Z,94550.03
2019-03-01T09:51:28.086Z,94576.69
2019-03-01T09:53:57.807Z,94573.38
2019-03-01T09:56:27.712Z,94575.34
2019-03-01T09:58:57.735Z,94564.15
2019-03-01T10:01:27.567Z,94575.25
2019-03-01T10:03:57.550Z,94569.19
2019-03-01T10:06:27.294Z,94580.70
2019-03-01T10:08:57.214Z,94567.14
2019-03-01T10:11:27.213Z,94573.84
2019-03-01T10:13:57.111Z,94560.87
2019-03-01T10:16:26.953Z,94569.98
2019-03-01T10:18:56.689Z,94559.53
2019-03-01T10:21:26.573Z,94546.09
2019-03-01T10:23:56.111Z,94558.87
2019-03-01T10:26:25.794Z,94553.72
2019-03-01T10:28:55.386Z,94547.84
2019-03-01T10:31:24.906Z,94548.03
2019-03-01T10:33:54.676Z,94549.36
2019-03-01T10:36:24.561Z,94552.31
2019-03-01T10:38:54.256Z,94562.73
2019-03-01T10:41:23.881Z,94552.72
2019-03-01T10:43:53.675Z,94533.75
2019-03-01T10:46:23.299Z,94540.16
2019-03-01T10:48:52.992Z,94527.53
2019-03-01T10:51:22.730Z,94533.25
2019-03-01T10:53:52.421Z,94531.61
2019-03-01T10:56:22.117Z,94533.25
2019-03-01T10:58:51.899Z,94524.39
2019-03-01T11:01:21.643Z,94519.64
2019-03-01T11:03:51.268Z,94502.59
2019-03-01T11:06:20.973Z,94514.88
2019-03-01T11:08:50.591Z,94507.53
2019-03-01T11:11:20.293Z,94516.89
2019-03-01T11:13:49.911Z,94505.92
2019-03-01T11:16:19.609Z,94505.92
2019-03-01T11:18:49.308Z,94497.44
2019-03-01T11:21:18.948Z,94492.15
2019-03-01T11:23:48.636Z,94494.95
2019-03-01T11:26:18.484Z,94484.93
2019-03-01T11:28:48.282Z,94492.15
2019-03-01T11:31:17.898Z,94490.16
2019-03-01T11:33:47.586Z,94490.93
2019-03-01T11:36:17.199Z,94481.66
2019-03-01T11:38:46.909Z,94478.65
2019-03-01T11:41:16.732Z,94474.42
2019-03-01T11:43:46.432Z,94475.23
2019-03-01T11:46:16.134Z,94470.47
2019-03-01T11:48:45.779Z,94467.55
2019-03-01T11:51:15.514Z,94471.03
2019-03-01T11:53:45.195Z,94470.97
2019-03-01T11:56:14.874Z,94467.80
2019-03-01T11:58:44.513Z,94457.44
2019-03-01T12:01:17.195Z,94464.66
2019-03-01T12:03:45.574Z,94450.23
2019-03-01T12:06:15.164Z,94459.87
2019-03-01T12:08:44.880Z,94462.05
2019-03-01T12:11:14.523Z,94466.80
2019-03-01T12:13:44.192Z,94454.52
2019-03-01T12:16:13.811Z,94451.28
2019-03-01T12:18:43.431Z,94451.63
2019-03-01T12:21:13.213Z,94441.92
2019-03-01T12:23:42.850Z,94450.81
2019-03-01T12:26:12.740Z,94451.84
2019-03-01T12:28:42.368Z,94440.28
2019-03-01T12:31:12.054Z,94439.06
2019-03-01T12:33:41.698Z,94430.23
2019-03-01T12:36:11.418Z,94426.50
2019-03-01T12:38:41.413Z,94422.20
2019-03-01T12:41:11.103Z,94419.39
2019-03-01T12:43:40.814Z,94415.64
2019-03-01T12:46:10.455Z,94422.85
2019-03-01T12:48:40.055Z,94413.94
2019-03-01T12:51:09.748Z,94413.13
2019-03-01T12:53:39.448Z,94410.98
2019-03-01T12:56:09.189Z,94401.09
2019-03-01T12:58:38.872Z,94413.23
2019-03-01T13:01:08.501Z,94398.00
2019-03-01T13:03:40.655Z,94405.30
2019-03-01T13:06:09.659Z,94398.00
2019-03-01T13:08:39.369Z,94398.78
2019-03-01T13:11:08.990Z,94394.52
2019-03-01T13:13:39.369Z,94390.59
2019-03-01T13:16:09.002Z,94389.70
2019-03-01T13:18:38.714Z,94387.02
2019-03-01T13:21:09.709Z,94388.11
2019-03-01T13:23:40.411Z,94389.98
2019-03-01T13:26:10.837Z,94392.38
2019-03-01T13:28:40.634Z,94382.57
2019-03-01T13:31:11.545Z,94382.09
2019-03-01T13:33:41.690Z,94384.99
2019-03-01T13:36:13.268Z,94388.50
2019-03-01T13:38:43.089Z,94388.58
2019-03-01T13:41:12.967Z,94384.30
2019-03-01T13:43:42.613Z,94378.95
2019-03-01T13:46:12.395Z,94372.65
2019-03-01T13:48:42.220Z,94368.52
2019-03-01T13:51:13.862Z,94374.23
2019-03-01T13:53:48.867Z,94359.75
2019-03-01T13:56:14.727Z,94365.91
2019-03-01T13:58:44.433Z,94369.11
2019-03-01T14:01:13.941Z,94366.97
2019-03-01T14:03:43.665Z,94366.16
2019-03-01T14:06:13.275Z,94357.71
2019-03-01T14:08:42.970Z,94359.27
2019-03-01T14:11:15.101Z,94359.16
2019-03-01T14:13:44.125Z,94353.64
2019-03-01T14:16:13.762Z,94342.66
2019-03-01T14:18:43.484Z,94342.14
2019-03-01T14:21:14.397Z,94337.31
2019-03-01T14:23:44.038Z,94338.93
2019-03-01T14:26:15.134Z,94338.45
2019-03-01T14:28:46.389Z,94332.30
2019-03-01T14:31:16.099Z,94339.52
2019-03-01T14:33:45.812Z,94337.39
2019-03-01T14:36:15.512Z,94333.58
2019-03-01T14:38:45.281Z,94332.52
2019-03-01T14:41:15.097Z,94329.37
2019-03-01T14:43:44.769Z,94333.10
2019-03-01T14:46:17.347Z,94331.48
2019-03-01T14:48:46.921Z,94333.38
2019-03-01T14:51:16.582Z,94328.34
2019-03-01T14:53:46.267Z,94325.36
2019-03-01T14:56:22.831Z,94325.08
2019-03-01T14:59:14.457Z,94327.53
2019-03-01T15:02:23.218Z,94318.66
2019-03-01T15:04:54.345Z,94317.63
2019-03-01T15:07:24.184Z,94320.78
2019-03-01T15:09:57.171Z,94325.36
2019-03-01T15:12:25.097Z,94323.80
2019-03-01T15:14:54.759Z,94326.95
2019-03-01T15:17:24.332Z,94329.90
2019-03-01T15:19:53.965Z,94333.38
2019-03-01T15:22:23.633Z,94330.66
2019-03-01T15:24:53.353Z,94331.67
2019-03-01T15:27:23.069Z,94335.88
2019-03-01T15:29:52.779Z,94339.59
2019-03-01T15:32:22.391Z,94345.05
2019-03-01T15:34:52.113Z,94350.50
2019-03-01T15:37:21.719Z,94346.06
2019-03-01T15:39:54.199Z,94340.38
2019-03-01T15:42:22.680Z,94343.16
2019-03-01T15:44:52.365Z,94344.52
2019-03-01T15:47:23.882Z,94343.23
2019-03-01T15:49:53.641Z,94349.65
2019-03-01T15:52:23.251Z,94335.99
2019-03-01T15:54:52.962Z,94337.88
2019-03-01T15:57:22.766Z,94337.88
2019-03-01T15:59:52.485Z,94336.32
2019-03-01T16:02:22.286Z,94332.05
2019-03-01T16:04:52.016Z,94355.91
2019-03-01T16:07:21.706Z,94354.30
2019-03-01T16:09:51.352Z,94356.14
2019-03-01T16:12:21.031Z,94358.81
2019-03-01T16:14:50.659Z,94363.13
2019-03-01T16:17:21.855Z,94361.22
2019-03-01T16:19:53.462Z,94357.20
2019-03-01T16:22:23.254Z,94358.27
2019-03-01T16:24:52.918Z,94364.95
2019-03-01T16:27:22.572Z,94366.04
2019-03-01T16:29:52.328Z,94362.55
2019-03-01T16:32:22.030Z,94369.58
2019-03-01T16:34:51.627Z,94371.88
2019-03-01T16:37:22.678Z,94381.72
2019-03-01T16:39:56.203Z,94385.69
2019-03-01T16:42:24.427Z,94386.16
2019-03-01T16:44:54.016Z,94389.45
2019-03-01T16:47:23.947Z,94390.08
2019-03-01T16:49:53.631Z,94391.42
2019-03-01T16:52:26.417Z,94388.70
2019-03-01T16:54:55.099Z,94396.80
2019-03-01T16:57:24.834Z,94388.86
2019-03-01T16:59:54.499Z,94391.78
2019-03-01T17:02:24.285Z,94393.27
2019-03-01T17:04:53.900Z,94393.80
2019-03-01T17:07:25.125Z,94395.97
2019-03-01T17:09:55.070Z,94396.62
2019-03-01T17:12:24.961Z,94401.30
2019-03-01T17:14:54.586Z,94403.42
2019-03-01T17:17:24.275Z,94398.66
2019-03-01T17:19:53.799Z,94402.41
2019-03-01T17:22:26.433Z,94406.85
2019-03-01T17:24:55.068Z,94398.05
2019-03-01T17:27:24.749Z,94405.69
2019-03-01T17:29:55.032Z,94400.54
2019-03-01T17:32:25.873Z,94405.94
2019-03-01T17:34:55.536Z,94409.43
2019-03-01T17:37:25.821Z,94398.92
2019-03-01T17:39:57.633Z,94407.33
2019-03-01T17:42:27.335Z,94402.83
2019-03-01T17:44:57.037Z,94407.87
2019-03-01T17:47:26.660Z,94415.95
2019-03-01T17:49:56.484Z,94413.27
2019-03-01T17:52:26.444Z,94413.55
2019-03-01T17:54:57.599Z,94413.02
2019-03-01T17:57:29.179Z,94409.43
2019-03-01T18:00:00.559Z,94417.19
2019-03-01T18:02:31.245Z,94414.41
2019-03-01T18:05:01.586Z,94411.60
2019-03-01T18:07:32.015Z,94417.57
2019-03-01T18:10:02.072Z,94416.38
2019-03-01T18:12:32.076Z,94416.86
2019-03-01T18:15:01.943Z,94423.05
2019-03-01T18:17:32.934Z,94419.26
2019-03-01T18:20:03.812Z,94416.69
2019-03-01T18:22:33.747Z,94420.70
2019-03-01T18:25:03.956Z,94411.28
2019-03-01T18:27:33.865Z,94410.11
2019-03-01T18:30:03.784Z,94415.23
2019-03-01T18:32:33.742Z,94410.47
2019-03-01T18:35:03.445Z,94405.39
2019-03-01T18:37:33.318Z,94411.53
2019-03-01T18:40:03.338Z,94416.17
2019-03-01T18:42:34.390Z,94410.45
2019-03-01T18:45:07.061Z,94412.06
2019-03-01T18:47:37.773Z,94412.38
2019-03-01T18:50:11.218Z,94423.08
2019-03-01T18:52:41.233Z,94420.09
2019-03-01T18:55:13.670Z,94415.80
2019-03-01T18:57:45.592Z,94424.37
2019-03-01T19:00:26.202Z,94418.85
2019-03-01T19:02:57.524Z,94423.89
2019-03-01T19:05:31.906Z,94422.98
2019-03-01T19:08:04.845Z,94424.84
2019-03-01T19:10:34.782Z,94424.39
2019-03-01T19:13:05.753Z,94428.05
2019-03-01T19:15:36.066Z,94419.48
2019-03-01T19:18:08.013Z,94423.07
2019-03-01T19:20:41.538Z,94426.86
2019-03-01T19:23:12.264Z,94423.00
2019-03-01T19:25:43.836Z,94421.71
2019-03-01T19:28:14.901Z,94426.95
2019-03-01T19:30:45.883Z,94421.59
2019-03-01T19:33:17.373Z,94429.62
2019-03-01T19:35:51.752Z,94428.44
2019-03-01T19:38:25.125Z,94429.89
2019-03-01T19:40:55.658Z,94431.19
2019-03-01T19:43:25.511Z,94425.76
2019-03-01T19:45:55.473Z,94426.16
2019-03-01T19:48:25.364Z,94424.39
2019-03-01T19:50:58.447Z,94427.12
2019-03-01T19:53:28.189Z,94427.44
2019-03-01T19:55:59.149Z,94426.14
2019-03-01T19:58:29.400Z,94430.72
2019-03-01T20:00:59.951Z,94432.05
2019-03-01T20:03:31.764Z,94429.31
2019-03-01T20:06:04.460Z,94430.72
2019-03-01T20:08:33.664Z,94433.16
2019-03-01T20:11:03.344Z,94430.72
2019-03-01T20:13:33.089Z,94425.56
2019-03-01T20:16:02.793Z,94426.62
2019-03-01T20:18:32.437Z,94427.88
2019-03-01T20:21:02.125Z,94427.39
2019-03-01T20:23:31.761Z,94426.44
2019-03-01T20:26:01.436Z,94431.22
2019-03-01T20:28:31.085Z,94420.23
2019-03-01T20:31:01.623Z,94426.55
2019-03-01T20:33:32.590Z,94420.47
2019-03-01T20:36:02.334Z,94423.08
2019-03-01T20:38:31.958Z,94423.08
2019-03-01T20:41:03.183Z,94415.80
2019-03-01T20:43:33.029Z,94419.19
2019-03-01T20:46:03.817Z,94416.81
2019-03-01T20:48:34.209Z,94418.16
2019-03-01T20:51:06.079Z,94413.78
2019-03-01T20:53:35.461Z,94413.55
2019-03-01T20:56:05.145Z,94411.20
2019-03-01T20:58:35.787Z,94415.56
2019-03-01T21:01:06.210Z,94412.08
2019-03-01T21:03:35.826Z,94421.18
2019-03-01T21:06:05.623Z,94420.88
2019-03-01T21:08:35.258Z,94416.80
2019-03-01T21:11:04.942Z,94417.16
2019-03-01T21:13:34.658Z,94420.92
2019-03-01T21:16:04.357Z,94416.30
2019-03-01T21:18:34.788Z,94418.14
2019-03-01T21:21:04.597Z,94416.30
2019-03-01T21:23:34.284Z,94423.75
2019-03-01T21:26:03.920Z,94419.73
2019-03-01T21:28:36.351Z,94421.56
2019-03-01T21:31:04.980Z,94418.83
2019-03-01T21:33:34.618Z,94418.50
2019-03-01T21:36:04.292Z,94416.52
2019-03-01T21:38:33.828Z,94415.46
2019-03-01T21:41:06.402Z,94414.66
2019-03-01T21:43:36.766Z,94415.72
2019-03-01T21:46:06.322Z,94415.44
2019-03-01T21:48:35.949Z,94412.70
2019-03-01T21:51:05.639Z,94411.12
2019-03-01T21:53:36.516Z,94410.58
2019-03-01T21:56:08.552Z,94409.55
2019-03-01T21:58:38.599Z,94412.17
2019-03-01T22:01:09.697Z,94406.52
2019-03-01T22:03:40.713Z,94410.52
2019-03-01T22:06:10.556Z,94403.77
2019-03-01T22:08:40.197Z,94399.55
2019-03-01T22:11:10.531Z,94396.28
2019-03-01T22:13:41.253Z,94394.95
2019-03-01T22:16:10.932Z,94394.39
2019-03-01T22:18:40.583Z,94392.75
2019-03-01T22:21:10.183Z,94399.70
2019-03-01T22:23:39.875Z,94394.89
2019-03-01T22:26:12.439Z,94393.54
2019-03-01T22:28:40.927Z,94394.62
2019-03-01T22:31:10.558Z,94397.24
2019-03-01T22:33:40.240Z,94400.13
2019-03-01T22:36:09.883Z,94394.02
2019-03-01T22:38:41.405Z,94398.53
2019-03-01T22:41:10.942Z,94397.72
2019-03-01T22:43:40.519Z,94396.11
2019-03-01T22:46:10.229Z,94394.77
2019-03-01T22:48:46.856Z,94390.28
2019-03-01T22:51:14.429Z,94392.67
2019-03-01T22:53:43.256Z,94396.05
2019-03-01T22:56:13.093Z,94390.64
2019-03-01T22:58:42.818Z,94390.98
2019-03-01T23:01:32.721Z,94389.11
2019-03-01T23:04:07.269Z,94384.48
2019-03-01T23:06:37.009Z,94392.56
2019-03-01T23:09:11.602Z,94399.87
2019-03-01T23:11:41.383Z,94397.13
2019-03-01T23:14:10.981Z,94398.95
2019-03-01T23:16:40.657Z,94399.00
2019-03-01T23:19:12.753Z,94395.24
2019-03-01T23:21:41.819Z,94399.42
2019-03-01T23:24:11.439Z,94398.30
2019-03-01T23:26:41.136Z,94394.52
2019-03-01T23:29:10.849Z,94394.23
2019-03-01T23:31:40.523Z,94399.06
2019-03-01T23:34:10.169Z,94397.72
2019-03-01T23:36:39.791Z,94399.59
2019-03-01T23:39:09.490Z,94405.75
2019-03-01T23:41:39.117Z,94407.62
2019-03-01T23:44:08.814Z,94413.17
2019-03-01T23:46:38.619Z,94411.63
2019-03-01T23:49:08.339Z,94405.69
2019-03-01T23:51:38.036Z,94398.73
2019-03-01T23:54:09.095Z,94403.80
2019-03-01T23:56:39.125Z,94400.77
2019-03-01T23:59:08.823Z,94403.75
